sensor_id;sensor_type;location;lat;lon;timestamp;P1;durP1;ratioP1;P2;durP2;ratioP2
29576;SDS011;16509;53.862;10.672;2022-09-16T00:00:27;5.65;;;0.90;;
29576;SDS011;16509;53.862;10.672;2022-09-16T00:02:53;7.80;;;1.40;;
29576;SDS011;16509;53.862;10.672;2022-09-16T00:05:19;7.57;;;1.20;;
29576;SDS011;16509;53.862;10.672;2022-09-16T00:07:45;6.72;;;1.35;;
29576;SDS011;16509;53.862;10.672;2022-09-16T00:10:11;8.85;;;1.42;;
29576;SDS011;16509;53.862;10.672;2022-09-16T00:12:37;3.65;;;1.20;;
29576;SDS011;16509;53.862;10.672;2022-09-16T00:15:03;4.45;;;0.82;;
29576;SDS011;16509;53.862;10.672;2022-09-16T00:17:29;8.15;;;1.35;;
29576;SDS011;16509;53.862;10.672;2022-09-16T00:19:55;3.90;;;1.02;;
29576;SDS011;16509;53.862;10.672;2022-09-16T00:22:22;3.47;;;1.20;;
29576;SDS011;16509;53.862;10.672;2022-09-16T00:24:49;4.57;;;1.48;;
29576;SDS011;16509;53.862;10.672;2022-09-16T00:27:14;7.05;;;1.35;;
29576;SDS011;16509;53.862;10.672;2022-09-16T00:29:40;5.95;;;1.20;;
29576;SDS011;16509;53.862;10.672;2022-09-16T00:32:06;2.53;;;1.27;;
29576;SDS011;16509;53.862;10.672;2022-09-16T00:34:31;10.48;;;1.65;;
29576;SDS011;16509;53.862;10.672;2022-09-16T00:36:57;6.88;;;1.27;;
29576;SDS011;16509;53.862;10.672;2022-09-16T00:39:22;4.45;;;1.10;;
29576;SDS011;16509;53.862;10.672;2022-09-16T00:41:48;7.32;;;1.52;;
29576;SDS011;16509;53.862;10.672;2022-09-16T00:47:24;4.68;;;1.30;;
29576;SDS011;16509;53.862;10.672;2022-09-16T00:49:58;7.10;;;1.90;;
29576;SDS011;16509;53.862;10.672;2022-09-16T00:52:28;8.43;;;1.27;;
29576;SDS011;16509;53.862;10.672;2022-09-16T00:54:54;1.88;;;1.05;;
29576;SDS011;16509;53.862;10.672;2022-09-16T00:57:20;8.00;;;1.38;;
29576;SDS011;16509;53.862;10.672;2022-09-16T00:59:47;11.45;;;1.42;;
29576;SDS011;16509;53.862;10.672;2022-09-16T01:02:18;4.35;;;1.20;;
29576;SDS011;16509;53.862;10.672;2022-09-16T01:04:55;7.15;;;1.63;;
29576;SDS011;16509;53.862;10.672;2022-09-16T01:07:33;1.58;;;1.05;;
29576;SDS011;16509;53.862;10.672;2022-09-16T01:10:10;6.05;;;1.30;;
29576;SDS011;16509;53.862;10.672;2022-09-16T01:12:41;9.30;;;1.40;;
29576;SDS011;16509;53.862;10.672;2022-09-16T01:15:09;3.20;;;1.15;;
29576;SDS011;16509;53.862;10.672;2022-09-16T01:31:42;4.63;;;1.08;;
29576;SDS011;16509;53.862;10.672;2022-09-16T01:39:40;8.02;;;1.30;;
29576;SDS011;16509;53.862;10.672;2022-09-16T01:42:17;7.60;;;1.30;;
29576;SDS011;16509;53.862;10.672;2022-09-16T01:44:59;6.25;;;1.25;;
29576;SDS011;16509;53.862;10.672;2022-09-16T01:50:15;6.30;;;1.50;;
29576;SDS011;16509;53.862;10.672;2022-09-16T01:55:38;5.78;;;0.93;;
29576;SDS011;16509;53.862;10.672;2022-09-16T02:01:01;3.92;;;1.38;;
29576;SDS011;16509;53.862;10.672;2022-09-16T02:03:32;4.38;;;1.23;;
29576;SDS011;16509;53.862;10.672;2022-09-16T02:06:10;6.03;;;1.23;;
29576;SDS011;16509;53.862;10.672;2022-09-16T02:08:45;9.63;;;1.90;;
29576;SDS011;16509;53.862;10.672;2022-09-16T02:11:17;8.27;;;1.20;;
29576;SDS011;16509;53.862;10.672;2022-09-16T02:16:33;2.60;;;1.30;;
29576;SDS011;16509;53.862;10.672;2022-09-16T02:19:08;7.00;;;1.20;;
29576;SDS011;16509;53.862;10.672;2022-09-16T02:21:38;5.32;;;1.20;;
29576;SDS011;16509;53.862;10.672;2022-09-16T02:24:07;7.15;;;1.42;;
29576;SDS011;16509;53.862;10.672;2022-09-16T02:26:38;10.82;;;1.40;;
29576;SDS011;16509;53.862;10.672;2022-09-16T02:29:10;3.47;;;1.23;;
29576;SDS011;16509;53.862;10.672;2022-09-16T02:31:40;1.77;;;1.23;;
29576;SDS011;16509;53.862;10.672;2022-09-16T02:34:10;3.92;;;1.48;;
29576;SDS011;16509;53.862;10.672;2022-09-16T02:36:40;3.40;;;1.20;;
29576;SDS011;16509;53.862;10.672;2022-09-16T02:39:10;5.25;;;1.50;;
29576;SDS011;16509;53.862;10.672;2022-09-16T02:41:40;5.38;;;1.20;;
29576;SDS011;16509;53.862;10.672;2022-09-16T02:44:07;4.10;;;1.10;;
29576;SDS011;16509;53.862;10.672;2022-09-16T02:49:08;7.53;;;1.20;;
29576;SDS011;16509;53.862;10.672;2022-09-16T02:54:35;6.38;;;1.13;;
29576;SDS011;16509;53.862;10.672;2022-09-16T02:57:08;2.67;;;1.38;;
29576;SDS011;16509;53.862;10.672;2022-09-16T02:59:34;4.00;;;1.10;;
29576;SDS011;16509;53.862;10.672;2022-09-16T03:02:02;3.55;;;1.08;;
29576;SDS011;16509;53.862;10.672;2022-09-16T03:04:28;3.15;;;1.10;;
29576;SDS011;16509;53.862;10.672;2022-09-16T03:06:54;5.28;;;1.08;;
29576;SDS011;16509;53.862;10.672;2022-09-16T03:09:19;4.55;;;1.02;;
29576;SDS011;16509;53.862;10.672;2022-09-16T03:11:51;5.70;;;1.20;;
29576;SDS011;16509;53.862;10.672;2022-09-16T03:14:35;2.22;;;1.00;;
29576;SDS011;16509;53.862;10.672;2022-09-16T03:17:22;3.85;;;1.25;;
29576;SDS011;16509;53.862;10.672;2022-09-16T03:28:35;1.75;;;1.05;;
29576;SDS011;16509;53.862;10.672;2022-09-16T03:31:12;3.67;;;1.35;;
29576;SDS011;16509;53.862;10.672;2022-09-16T03:34:02;3.67;;;1.05;;
29576;SDS011;16509;53.862;10.672;2022-09-16T03:36:38;4.45;;;1.10;;
29576;SDS011;16509;53.862;10.672;2022-09-16T03:39:08;7.22;;;1.65;;
29576;SDS011;16509;53.862;10.672;2022-09-16T03:41:34;4.32;;;1.08;;
29576;SDS011;16509;53.862;10.672;2022-09-16T03:44:00;6.82;;;1.00;;
29576;SDS011;16509;53.862;10.672;2022-09-16T03:46:26;5.43;;;1.17;;
29576;SDS011;16509;53.862;10.672;2022-09-16T03:48:53;6.55;;;1.15;;
29576;SDS011;16509;53.862;10.672;2022-09-16T03:51:19;3.72;;;1.40;;
29576;SDS011;16509;53.862;10.672;2022-09-16T03:53:45;2.47;;;1.15;;
29576;SDS011;16509;53.862;10.672;2022-09-16T03:56:10;2.67;;;1.35;;
29576;SDS011;16509;53.862;10.672;2022-09-16T03:58:36;8.52;;;1.65;;
29576;SDS011;16509;53.862;10.672;2022-09-16T04:01:01;8.68;;;1.70;;
29576;SDS011;16509;53.862;10.672;2022-09-16T04:03:27;6.88;;;1.77;;
29576;SDS011;16509;53.862;10.672;2022-09-16T04:05:54;4.82;;;1.45;;
29576;SDS011;16509;53.862;10.672;2022-09-16T04:08:20;8.40;;;1.60;;
29576;SDS011;16509;53.862;10.672;2022-09-16T04:10:56;2.35;;;1.52;;
29576;SDS011;16509;53.862;10.672;2022-09-16T04:13:23;9.25;;;1.50;;
29576;SDS011;16509;53.862;10.672;2022-09-16T04:15:49;9.65;;;2.05;;
29576;SDS011;16509;53.862;10.672;2022-09-16T04:18:14;13.30;;;2.58;;
29576;SDS011;16509;53.862;10.672;2022-09-16T04:20:40;4.20;;;1.67;;
29576;SDS011;16509;53.862;10.672;2022-09-16T04:23:06;6.63;;;1.80;;
29576;SDS011;16509;53.862;10.672;2022-09-16T04:25:32;7.32;;;1.70;;
29576;SDS011;16509;53.862;10.672;2022-09-16T04:27:58;7.00;;;1.85;;
29576;SDS011;16509;53.862;10.672;2022-09-16T04:30:23;6.53;;;1.77;;
29576;SDS011;16509;53.862;10.672;2022-09-16T04:32:53;3.83;;;1.58;;
29576;SDS011;16509;53.862;10.672;2022-09-16T04:35:19;4.40;;;1.65;;
29576;SDS011;16509;53.862;10.672;2022-09-16T04:37:45;9.15;;;1.58;;
29576;SDS011;16509;53.862;10.672;2022-09-16T04:40:11;3.67;;;1.20;;
29576;SDS011;16509;53.862;10.672;2022-09-16T04:42:36;6.22;;;1.50;;
29576;SDS011;16509;53.862;10.672;2022-09-16T04:45:02;2.92;;;1.45;;
29576;SDS011;16509;53.862;10.672;2022-09-16T04:47:28;4.47;;;1.60;;
29576;SDS011;16509;53.862;10.672;2022-09-16T04:49:54;9.90;;;1.48;;
29576;SDS011;16509;53.862;10.672;2022-09-16T04:52:19;5.68;;;1.50;;
29576;SDS011;16509;53.862;10.672;2022-09-16T04:54:45;3.33;;;1.08;;
29576;SDS011;16509;53.862;10.672;2022-09-16T04:57:11;6.68;;;1.52;;
29576;SDS011;16509;53.862;10.672;2022-09-16T04:59:36;7.00;;;1.58;;
29576;SDS011;16509;53.862;10.672;2022-09-16T05:02:02;2.40;;;1.20;;
29576;SDS011;16509;53.862;10.672;2022-09-16T05:04:27;6.05;;;1.23;;
29576;SDS011;16509;53.862;10.672;2022-09-16T05:06:53;3.67;;;1.40;;
29576;SDS011;16509;53.862;10.672;2022-09-16T05:09:19;3.50;;;1.23;;
29576;SDS011;16509;53.862;10.672;2022-09-16T05:11:46;4.22;;;1.55;;
29576;SDS011;16509;53.862;10.672;2022-09-16T05:14:13;8.50;;;1.50;;
29576;SDS011;16509;53.862;10.672;2022-09-16T05:16:40;6.47;;;1.95;;
29576;SDS011;16509;53.862;10.672;2022-09-16T05:19:06;4.55;;;1.52;;
29576;SDS011;16509;53.862;10.672;2022-09-16T05:21:33;4.60;;;1.75;;
29576;SDS011;16509;53.862;10.672;2022-09-16T05:24:01;12.82;;;1.85;;
29576;SDS011;16509;53.862;10.672;2022-09-16T05:26:30;3.90;;;1.60;;
29576;SDS011;16509;53.862;10.672;2022-09-16T05:29:03;9.02;;;2.15;;
29576;SDS011;16509;53.862;10.672;2022-09-16T05:31:33;3.00;;;1.48;;
29576;SDS011;16509;53.862;10.672;2022-09-16T05:34:01;9.90;;;2.25;;
29576;SDS011;16509;53.862;10.672;2022-09-16T05:36:30;6.18;;;1.33;;
29576;SDS011;16509;53.862;10.672;2022-09-16T05:38:57;5.32;;;1.52;;
29576;SDS011;16509;53.862;10.672;2022-09-16T05:41:23;5.78;;;1.60;;
29576;SDS011;16509;53.862;10.672;2022-09-16T05:43:49;7.38;;;1.52;;
29576;SDS011;16509;53.862;10.672;2022-09-16T05:46:21;9.52;;;1.40;;
29576;SDS011;16509;53.862;10.672;2022-09-16T05:48:47;2.08;;;1.20;;
29576;SDS011;16509;53.862;10.672;2022-09-16T05:51:17;8.38;;;1.50;;
29576;SDS011;16509;53.862;10.672;2022-09-16T05:53:45;8.02;;;1.27;;
29576;SDS011;16509;53.862;10.672;2022-09-16T05:56:14;6.55;;;1.52;;
29576;SDS011;16509;53.862;10.672;2022-09-16T05:58:41;6.00;;;1.52;;
29576;SDS011;16509;53.862;10.672;2022-09-16T06:01:08;7.50;;;2.08;;
29576;SDS011;16509;53.862;10.672;2022-09-16T06:03:39;2.30;;;1.33;;
29576;SDS011;16509;53.862;10.672;2022-09-16T06:08:32;3.83;;;1.10;;
29576;SDS011;16509;53.862;10.672;2022-09-16T06:11:02;4.70;;;1.17;;
29576;SDS011;16509;53.862;10.672;2022-09-16T06:13:29;2.78;;;1.20;;
29576;SDS011;16509;53.862;10.672;2022-09-16T06:15:55;3.45;;;1.20;;
29576;SDS011;16509;53.862;10.672;2022-09-16T06:18:22;4.13;;;1.08;;
29576;SDS011;16509;53.862;10.672;2022-09-16T06:20:49;5.78;;;1.15;;
29576;SDS011;16509;53.862;10.672;2022-09-16T06:23:15;5.20;;;1.27;;
29576;SDS011;16509;53.862;10.672;2022-09-16T06:25:42;4.38;;;1.10;;
29576;SDS011;16509;53.862;10.672;2022-09-16T06:28:08;5.82;;;1.35;;
29576;SDS011;16509;53.862;10.672;2022-09-16T06:30:35;1.77;;;1.20;;
29576;SDS011;16509;53.862;10.672;2022-09-16T06:33:01;2.67;;;0.98;;
29576;SDS011;16509;53.862;10.672;2022-09-16T06:35:27;6.47;;;1.40;;
29576;SDS011;16509;53.862;10.672;2022-09-16T06:37:53;5.82;;;1.17;;
29576;SDS011;16509;53.862;10.672;2022-09-16T06:40:18;4.18;;;1.30;;
29576;SDS011;16509;53.862;10.672;2022-09-16T06:42:44;5.55;;;1.23;;
29576;SDS011;16509;53.862;10.672;2022-09-16T06:45:10;5.50;;;1.48;;
29576;SDS011;16509;53.862;10.672;2022-09-16T06:47:36;9.38;;;1.10;;
29576;SDS011;16509;53.862;10.672;2022-09-16T06:50:02;11.43;;;1.35;;
29576;SDS011;16509;53.862;10.672;2022-09-16T06:52:29;4.97;;;0.88;;
29576;SDS011;16509;53.862;10.672;2022-09-16T06:54:54;5.78;;;1.20;;
29576;SDS011;16509;53.862;10.672;2022-09-16T06:57:20;5.65;;;1.92;;
29576;SDS011;16509;53.862;10.672;2022-09-16T06:59:47;8.15;;;1.38;;
29576;SDS011;16509;53.862;10.672;2022-09-16T07:02:14;4.97;;;1.35;;
29576;SDS011;16509;53.862;10.672;2022-09-16T07:04:40;3.03;;;1.08;;
29576;SDS011;16509;53.862;10.672;2022-09-16T07:07:05;6.72;;;1.02;;
29576;SDS011;16509;53.862;10.672;2022-09-16T07:09:31;2.90;;;1.02;;
29576;SDS011;16509;53.862;10.672;2022-09-16T07:11:57;7.93;;;1.45;;
29576;SDS011;16509;53.862;10.672;2022-09-16T07:14:23;4.70;;;0.90;;
29576;SDS011;16509;53.862;10.672;2022-09-16T07:16:50;4.72;;;1.25;;
29576;SDS011;16509;53.862;10.672;2022-09-16T07:19:16;2.60;;;0.90;;
29576;SDS011;16509;53.862;10.672;2022-09-16T07:21:41;2.80;;;1.10;;
29576;SDS011;16509;53.862;10.672;2022-09-16T10:30:31;2.85;;;0.77;;
29576;SDS011;16509;53.862;10.672;2022-09-16T10:33:16;5.45;;;1.08;;
29576;SDS011;16509;53.862;10.672;2022-09-16T10:36:05;6.97;;;1.20;;
29576;SDS011;16509;53.862;10.672;2022-09-16T10:41:06;2.83;;;1.00;;
29576;SDS011;16509;53.862;10.672;2022-09-16T10:43:38;4.32;;;1.05;;
29576;SDS011;16509;53.862;10.672;2022-09-16T10:46:13;4.93;;;0.95;;
29576;SDS011;16509;53.862;10.672;2022-09-16T10:48:40;6.03;;;0.93;;
29576;SDS011;16509;53.862;10.672;2022-09-16T10:51:15;6.13;;;0.88;;
29576;SDS011;16509;53.862;10.672;2022-09-16T10:53:52;5.43;;;1.00;;
29576;SDS011;16509;53.862;10.672;2022-09-16T10:56:24;5.38;;;1.05;;
29576;SDS011;16509;53.862;10.672;2022-09-16T11:04:16;5.78;;;1.30;;
29576;SDS011;16509;53.862;10.672;2022-09-16T11:18:42;7.88;;;1.20;;
29576;SDS011;16509;53.862;10.672;2022-09-16T11:26:14;3.78;;;0.98;;
29576;SDS011;16509;53.862;10.672;2022-09-16T11:37:16;4.15;;;1.10;;
29576;SDS011;16509;53.862;10.672;2022-09-16T11:42:49;7.75;;;1.00;;
29576;SDS011;16509;53.862;10.672;2022-09-16T11:48:33;6.10;;;1.20;;
29576;SDS011;16509;53.862;10.672;2022-09-16T11:57:09;8.45;;;0.93;;
29576;SDS011;16509;53.862;10.672;2022-09-16T11:59:48;4.13;;;1.20;;
29576;SDS011;16509;53.862;10.672;2022-09-16T12:02:33;7.97;;;1.02;;
29576;SDS011;16509;53.862;10.672;2022-09-16T12:07:45;3.90;;;0.98;;
29576;SDS011;16509;53.862;10.672;2022-09-16T12:10:31;9.25;;;1.33;;
29576;SDS011;16509;53.862;10.672;2022-09-16T12:13:04;2.90;;;1.02;;
29576;SDS011;16509;53.862;10.672;2022-09-16T12:15:56;5.20;;;1.15;;
29576;SDS011;16509;53.862;10.672;2022-09-16T12:18:29;7.03;;;1.13;;
29576;SDS011;16509;53.862;10.672;2022-09-16T12:21:05;5.70;;;1.02;;
29576;SDS011;16509;53.862;10.672;2022-09-16T12:23:40;11.98;;;0.90;;
29576;SDS011;16509;53.862;10.672;2022-09-16T12:28:53;5.72;;;1.10;;
29576;SDS011;16509;53.862;10.672;2022-09-16T12:31:46;12.18;;;1.63;;
29576;SDS011;16509;53.862;10.672;2022-09-16T12:39:34;2.55;;;0.75;;
29576;SDS011;16509;53.862;10.672;2022-09-16T13:03:39;2.40;;;0.80;;
29576;SDS011;16509;53.862;10.672;2022-09-16T13:09:14;2.00;;;0.50;;
29576;SDS011;16509;53.862;10.672;2022-09-16T13:11:50;2.15;;;1.13;;
29576;SDS011;16509;53.862;10.672;2022-09-16T13:14:22;3.65;;;0.50;;
29576;SDS011;16509;53.862;10.672;2022-09-16T13:16:53;2.20;;;0.70;;
29576;SDS011;16509;53.862;10.672;2022-09-16T13:24:53;5.32;;;0.80;;
29576;SDS011;16509;53.862;10.672;2022-09-16T13:27:22;7.85;;;0.70;;
29576;SDS011;16509;53.862;10.672;2022-09-16T13:37:42;6.13;;;0.85;;
29576;SDS011;16509;53.862;10.672;2022-09-16T13:40:15;3.55;;;0.73;;
29576;SDS011;16509;53.862;10.672;2022-09-16T13:42:46;2.83;;;0.95;;
29576;SDS011;16509;53.862;10.672;2022-09-16T13:48:09;7.05;;;0.90;;
29576;SDS011;16509;53.862;10.672;2022-09-16T13:50:38;4.95;;;0.93;;
29576;SDS011;16509;53.862;10.672;2022-09-16T13:53:08;2.67;;;0.98;;
29576;SDS011;16509;53.862;10.672;2022-09-16T13:55:35;3.97;;;0.90;;
29576;SDS011;16509;53.862;10.672;2022-09-16T13:58:24;4.63;;;1.17;;
29576;SDS011;16509;53.862;10.672;2022-09-16T14:01:02;2.35;;;0.63;;
29576;SDS011;16509;53.862;10.672;2022-09-16T14:14:40;5.75;;;0.93;;
29576;SDS011;16509;53.862;10.672;2022-09-16T14:17:13;4.18;;;0.90;;
29576;SDS011;16509;53.862;10.672;2022-09-16T14:19:51;7.55;;;1.88;;
29576;SDS011;16509;53.862;10.672;2022-09-16T14:22:20;2.70;;;0.70;;
29576;SDS011;16509;53.862;10.672;2022-09-16T14:24:47;1.98;;;0.63;;
29576;SDS011;16509;53.862;10.672;2022-09-16T14:29:59;7.30;;;0.75;;
29576;SDS011;16509;53.862;10.672;2022-09-16T14:32:27;1.10;;;0.60;;
29576;SDS011;16509;53.862;10.672;2022-09-16T14:34:54;2.45;;;0.82;;
29576;SDS011;16509;53.862;10.672;2022-09-16T14:37:24;1.98;;;0.63;;
29576;SDS011;16509;53.862;10.672;2022-09-16T14:39:52;0.77;;;0.77;;
29576;SDS011;16509;53.862;10.672;2022-09-16T14:42:20;4.05;;;1.13;;
29576;SDS011;16509;53.862;10.672;2022-09-16T14:47:31;0.85;;;0.60;;
29576;SDS011;16509;53.862;10.672;2022-09-16T14:52:32;1.48;;;0.63;;
29576;SDS011;16509;53.862;10.672;2022-09-16T14:54:59;2.42;;;0.70;;
29576;SDS011;16509;53.862;10.672;2022-09-16T14:57:26;1.45;;;0.52;;
29576;SDS011;16509;53.862;10.672;2022-09-16T14:59:56;3.30;;;0.52;;
29576;SDS011;16509;53.862;10.672;2022-09-16T15:02:25;0.65;;;0.50;;
29576;SDS011;16509;53.862;10.672;2022-09-16T15:07:50;3.08;;;0.68;;
29576;SDS011;16509;53.862;10.672;2022-09-16T15:10:22;2.40;;;0.60;;
29576;SDS011;16509;53.862;10.672;2022-09-16T15:13:13;3.15;;;0.57;;
29576;SDS011;16509;53.862;10.672;2022-09-16T15:15:47;2.47;;;0.63;;
29576;SDS011;16509;53.862;10.672;2022-09-16T15:18:26;2.38;;;0.93;;
29576;SDS011;16509;53.862;10.672;2022-09-16T15:21:00;1.67;;;0.73;;
29576;SDS011;16509;53.862;10.672;2022-09-16T15:23:29;1.95;;;0.68;;
29576;SDS011;16509;53.862;10.672;2022-09-16T15:25:57;1.17;;;0.50;;
29576;SDS011;16509;53.862;10.672;2022-09-16T15:28:29;9.90;;;1.00;;
29576;SDS011;16509;53.862;10.672;2022-09-16T15:30:55;2.65;;;0.80;;
29576;SDS011;16509;53.862;10.672;2022-09-16T15:33:25;1.13;;;0.70;;
29576;SDS011;16509;53.862;10.672;2022-09-16T15:35:59;7.97;;;0.98;;
29576;SDS011;16509;53.862;10.672;2022-09-16T15:38:26;0.80;;;0.77;;
29576;SDS011;16509;53.862;10.672;2022-09-16T15:40:59;2.75;;;0.60;;
29576;SDS011;16509;53.862;10.672;2022-09-16T15:43:33;2.45;;;0.90;;
29576;SDS011;16509;53.862;10.672;2022-09-16T15:46:12;1.85;;;0.70;;
29576;SDS011;16509;53.862;10.672;2022-09-16T15:48:53;2.47;;;0.85;;
29576;SDS011;16509;53.862;10.672;2022-09-16T15:51:33;1.42;;;0.90;;
29576;SDS011;16509;53.862;10.672;2022-09-16T15:54:06;6.90;;;1.17;;
29576;SDS011;16509;53.862;10.672;2022-09-16T15:56:59;2.15;;;0.90;;
29576;SDS011;16509;53.862;10.672;2022-09-16T15:59:37;5.35;;;1.00;;
29576;SDS011;16509;53.862;10.672;2022-09-16T16:05:16;1.98;;;1.20;;
29576;SDS011;16509;53.862;10.672;2022-09-16T16:07:52;4.32;;;0.93;;
29576;SDS011;16509;53.862;10.672;2022-09-16T16:10:24;2.95;;;0.95;;
29576;SDS011;16509;53.862;10.672;2022-09-16T16:12:54;4.18;;;1.10;;
29576;SDS011;16509;53.862;10.672;2022-09-16T16:15:25;3.33;;;1.05;;
29576;SDS011;16509;53.862;10.672;2022-09-16T16:17:52;7.15;;;1.15;;
29576;SDS011;16509;53.862;10.672;2022-09-16T16:20:21;2.85;;;1.35;;
29576;SDS011;16509;53.862;10.672;2022-09-16T16:22:48;4.68;;;1.30;;
29576;SDS011;16509;53.862;10.672;2022-09-16T16:25:14;5.35;;;1.25;;
29576;SDS011;16509;53.862;10.672;2022-09-16T16:27:40;4.72;;;1.25;;
29576;SDS011;16509;53.862;10.672;2022-09-16T16:30:05;6.50;;;1.10;;
29576;SDS011;16509;53.862;10.672;2022-09-16T16:32:31;1.50;;;1.00;;
29576;SDS011;16509;53.862;10.672;2022-09-16T16:34:59;2.47;;;1.17;;
29576;SDS011;16509;53.862;10.672;2022-09-16T16:37:26;4.45;;;1.08;;
29576;SDS011;16509;53.862;10.672;2022-09-16T16:39:52;3.95;;;1.15;;
29576;SDS011;16509;53.862;10.672;2022-09-16T16:42:18;5.18;;;1.30;;
29576;SDS011;16509;53.862;10.672;2022-09-16T16:44:45;3.20;;;1.20;;
29576;SDS011;16509;53.862;10.672;2022-09-16T16:47:10;9.32;;;1.70;;
29576;SDS011;16509;53.862;10.672;2022-09-16T16:49:36;2.13;;;1.40;;
29576;SDS011;16509;53.862;10.672;2022-09-16T16:52:03;3.80;;;1.30;;
29576;SDS011;16509;53.862;10.672;2022-09-16T16:54:29;4.25;;;1.38;;
29576;SDS011;16509;53.862;10.672;2022-09-16T16:56:56;7.55;;;1.60;;
29576;SDS011;16509;53.862;10.672;2022-09-16T16:59:22;3.38;;;1.90;;
29576;SDS011;16509;53.862;10.672;2022-09-16T17:01:58;3.22;;;1.35;;
29576;SDS011;16509;53.862;10.672;2022-09-16T17:04:26;6.70;;;1.60;;
29576;SDS011;16509;53.862;10.672;2022-09-16T17:06:53;7.78;;;1.58;;
29576;SDS011;16509;53.862;10.672;2022-09-16T17:09:20;5.10;;;1.80;;
29576;SDS011;16509;53.862;10.672;2022-09-16T17:11:53;6.15;;;2.10;;
29576;SDS011;16509;53.862;10.672;2022-09-16T17:14:24;10.57;;;2.00;;
29576;SDS011;16509;53.862;10.672;2022-09-16T17:16:51;7.13;;;1.98;;
29576;SDS011;16509;53.862;10.672;2022-09-16T17:19:18;10.70;;;2.58;;
29576;SDS011;16509;53.862;10.672;2022-09-16T17:21:45;5.25;;;1.55;;
29576;SDS011;16509;53.862;10.672;2022-09-16T17:24:12;9.18;;;1.60;;
29576;SDS011;16509;53.862;10.672;2022-09-16T17:26:37;4.68;;;1.70;;
29576;SDS011;16509;53.862;10.672;2022-09-16T17:29:03;6.65;;;1.65;;
29576;SDS011;16509;53.862;10.672;2022-09-16T17:31:31;13.60;;;2.58;;
29576;SDS011;16509;53.862;10.672;2022-09-16T17:33:59;5.35;;;1.80;;
29576;SDS011;16509;53.862;10.672;2022-09-16T17:36:27;12.82;;;1.80;;
29576;SDS011;16509;53.862;10.672;2022-09-16T17:38:57;11.18;;;1.80;;
29576;SDS011;16509;53.862;10.672;2022-09-16T17:41:24;7.40;;;1.70;;
29576;SDS011;16509;53.862;10.672;2022-09-16T17:43:53;11.13;;;1.80;;
29576;SDS011;16509;53.862;10.672;2022-09-16T17:46:20;8.35;;;1.60;;
29576;SDS011;16509;53.862;10.672;2022-09-16T17:48:47;7.47;;;1.73;;
29576;SDS011;16509;53.862;10.672;2022-09-16T17:51:16;4.00;;;1.45;;
29576;SDS011;16509;53.862;10.672;2022-09-16T17:53:42;6.45;;;1.67;;
29576;SDS011;16509;53.862;10.672;2022-09-16T17:56:12;3.88;;;1.60;;
29576;SDS011;16509;53.862;10.672;2022-09-16T17:58:40;5.32;;;2.33;;
29576;SDS011;16509;53.862;10.672;2022-09-16T18:01:14;8.77;;;2.25;;
29576;SDS011;16509;53.862;10.672;2022-09-16T18:03:42;4.40;;;1.98;;
29576;SDS011;16509;53.862;10.672;2022-09-16T18:08:42;9.48;;;1.77;;
29576;SDS011;16509;53.862;10.672;2022-09-16T18:11:10;8.20;;;2.13;;
29576;SDS011;16509;53.862;10.672;2022-09-16T18:13:37;7.40;;;2.00;;
29576;SDS011;16509;53.862;10.672;2022-09-16T18:16:05;7.35;;;1.50;;
29576;SDS011;16509;53.862;10.672;2022-09-16T18:18:37;5.95;;;1.70;;
29576;SDS011;16509;53.862;10.672;2022-09-16T18:21:07;5.55;;;1.70;;
29576;SDS011;16509;53.862;10.672;2022-09-16T18:23:35;7.68;;;2.05;;
29576;SDS011;16509;53.862;10.672;2022-09-16T18:26:04;4.40;;;1.45;;
29576;SDS011;16509;53.862;10.672;2022-09-16T18:28:38;11.25;;;1.95;;
29576;SDS011;16509;53.862;10.672;2022-09-16T18:31:07;3.47;;;1.23;;
29576;SDS011;16509;53.862;10.672;2022-09-16T18:33:35;4.47;;;1.83;;
29576;SDS011;16509;53.862;10.672;2022-09-16T18:36:01;5.35;;;1.85;;
29576;SDS011;16509;53.862;10.672;2022-09-16T18:38:31;9.05;;;1.88;;
29576;SDS011;16509;53.862;10.672;2022-09-16T18:41:04;9.45;;;1.92;;
29576;SDS011;16509;53.862;10.672;2022-09-16T18:43:35;5.47;;;1.88;;
29576;SDS011;16509;53.862;10.672;2022-09-16T18:46:15;6.63;;;1.50;;
29576;SDS011;16509;53.862;10.672;2022-09-16T18:48:43;2.45;;;1.35;;
29576;SDS011;16509;53.862;10.672;2022-09-16T18:53:41;8.65;;;1.70;;
29576;SDS011;16509;53.862;10.672;2022-09-16T18:56:11;5.75;;;1.73;;
29576;SDS011;16509;53.862;10.672;2022-09-16T18:58:38;4.70;;;1.70;;
29576;SDS011;16509;53.862;10.672;2022-09-16T19:01:20;7.28;;;1.80;;
29576;SDS011;16509;53.862;10.672;2022-09-16T19:03:50;4.00;;;1.50;;
29576;SDS011;16509;53.862;10.672;2022-09-16T19:06:19;6.95;;;1.80;;
29576;SDS011;16509;53.862;10.672;2022-09-16T19:08:48;6.22;;;1.73;;
29576;SDS011;16509;53.862;10.672;2022-09-16T19:11:14;3.20;;;1.67;;
29576;SDS011;16509;53.862;10.672;2022-09-16T19:13:41;7.65;;;2.40;;
29576;SDS011;16509;53.862;10.672;2022-09-16T19:16:09;9.45;;;2.15;;
29576;SDS011;16509;53.862;10.672;2022-09-16T19:18:36;8.02;;;2.30;;
29576;SDS011;16509;53.862;10.672;2022-09-16T19:21:03;7.22;;;3.45;;
29576;SDS011;16509;53.862;10.672;2022-09-16T19:23:29;6.30;;;2.40;;
29576;SDS011;16509;53.862;10.672;2022-09-16T19:26:01;8.23;;;2.33;;
29576;SDS011;16509;53.862;10.672;2022-09-16T19:28:28;6.35;;;2.13;;
29576;SDS011;16509;53.862;10.672;2022-09-16T19:30:59;7.95;;;2.55;;
29576;SDS011;16509;53.862;10.672;2022-09-16T19:33:36;10.13;;;2.47;;
29576;SDS011;16509;53.862;10.672;2022-09-16T19:36:12;7.10;;;2.08;;
29576;SDS011;16509;53.862;10.672;2022-09-16T19:38:39;5.50;;;2.20;;
29576;SDS011;16509;53.862;10.672;2022-09-16T19:41:06;2.78;;;2.10;;
29576;SDS011;16509;53.862;10.672;2022-09-16T19:43:32;4.53;;;2.00;;
29576;SDS011;16509;53.862;10.672;2022-09-16T19:46:01;14.32;;;1.85;;
29576;SDS011;16509;53.862;10.672;2022-09-16T19:48:29;7.43;;;1.85;;
29576;SDS011;16509;53.862;10.672;2022-09-16T19:50:56;3.50;;;1.33;;
29576;SDS011;16509;53.862;10.672;2022-09-16T19:53:22;3.08;;;1.88;;
29576;SDS011;16509;53.862;10.672;2022-09-16T19:56:01;7.97;;;1.52;;
29576;SDS011;16509;53.862;10.672;2022-09-16T19:58:29;4.57;;;1.23;;
29576;SDS011;16509;53.862;10.672;2022-09-16T20:00:56;7.82;;;1.30;;
29576;SDS011;16509;53.862;10.672;2022-09-16T20:03:30;5.85;;;1.30;;
29576;SDS011;16509;53.862;10.672;2022-09-16T20:06:04;10.15;;;1.10;;
29576;SDS011;16509;53.862;10.672;2022-09-16T20:08:31;6.13;;;1.27;;
29576;SDS011;16509;53.862;10.672;2022-09-16T20:11:05;3.20;;;1.15;;
29576;SDS011;16509;53.862;10.672;2022-09-16T20:13:46;6.63;;;1.33;;
29576;SDS011;16509;53.862;10.672;2022-09-16T20:16:13;5.95;;;1.20;;
29576;SDS011;16509;53.862;10.672;2022-09-16T20:18:39;8.55;;;1.80;;
29576;SDS011;16509;53.862;10.672;2022-09-16T20:21:06;6.88;;;1.70;;
29576;SDS011;16509;53.862;10.672;2022-09-16T20:23:34;4.45;;;1.30;;
29576;SDS011;16509;53.862;10.672;2022-09-16T20:26:01;1.70;;;1.05;;
29576;SDS011;16509;53.862;10.672;2022-09-16T20:28:29;5.13;;;1.23;;
29576;SDS011;16509;53.862;10.672;2022-09-16T20:30:55;4.45;;;1.05;;
29576;SDS011;16509;53.862;10.672;2022-09-16T20:33:21;5.97;;;1.15;;
29576;SDS011;16509;53.862;10.672;2022-09-16T20:35:47;7.22;;;1.58;;
29576;SDS011;16509;53.862;10.672;2022-09-16T20:38:12;6.25;;;1.42;;
29576;SDS011;16509;53.862;10.672;2022-09-16T20:40:38;5.25;;;1.40;;
29576;SDS011;16509;53.862;10.672;2022-09-16T20:43:03;7.57;;;1.33;;
29576;SDS011;16509;53.862;10.672;2022-09-16T20:45:29;6.13;;;1.48;;
29576;SDS011;16509;53.862;10.672;2022-09-16T20:47:55;5.63;;;1.40;;
29576;SDS011;16509;53.862;10.672;2022-09-16T20:50:20;12.60;;;1.50;;